Flight Track Log - Related Links

Times and Time Zones

All times are in EDT time to prevent confusion due to time zone crossing. See the AAL1862 flight status page for this flight to view local times or setup timezone preferences in your user account.

Time Position Orientation Groundspeed Altitude Reporting Facility
EDT Latitude Longitude Course Direction KTS MPH feet Rate Location/Type
Wed 07:36:00 AM 32.8833 -97.0333 357° North 164 189 1,400  Level Dallas / Fort Worth TRACON
Wed 07:36:48 AM 32.8500 -97.0167 157° South 209 241 2,800 2,563 Climbing Dallas / Fort Worth TRACON
Wed 07:38:00 AM 32.7578 -96.8610 77° East  Level FlightAware Approximate
Wed 07:39:00 AM 32.8433 -96.8013 10° North  Level FlightAware Approximate
Wed 07:39:12 AM 32.7697 -96.8797 125° Southeast 227 261 9,600  Level Fort Worth Center
Wed 07:40:00 AM 32.9593 -96.8000 North  Level FlightAware Approximate
Wed 07:40:12 AM 32.8572 -96.8494 16° North 201 231 11,300  Level Fort Worth Center
Wed 07:41:00 AM 33.0753 -96.8006 357° North  Level FlightAware Approximate
Wed 07:41:12 AM 32.9614 -96.8414 North 329 379 14,500  Level Fort Worth Center
Wed 07:42:12 AM 33.0658 -96.8383 North 361 415 16,700 2,250 Climbing Fort Worth Center
Wed 07:43:12 AM 33.1661 -96.8353 North 386 444 19,000 2,350 Climbing Fort Worth Center
Wed 07:44:12 AM 33.2869 -96.7847 19° North 399 459 21,400 2,000 Climbing Fort Worth Center
Wed 07:45:12 AM 33.3869 -96.7392 21° North 423 487 23,000 1,850 Climbing Fort Worth Center
Wed 07:46:12 AM 33.5014 -96.6886 20° North 428 493 25,100 1,850 Climbing Fort Worth Center
Wed 07:47:12 AM 33.6178 -96.6328 22° Northeast 433 498 26,700 1,400 Climbing Fort Worth Center
Wed 07:48:12 AM 33.7447 -96.5767 20° North 433 498 27,900 1,750 Climbing Fort Worth Center
Wed 07:49:12 AM 33.8508 -96.5256 22° Northeast 438 504 30,200 1,750 Climbing Fort Worth Center
Wed 07:50:12 AM 33.9675 -96.4719 21° North 438 504 31,400 1,400 Climbing Fort Worth Center
Wed 07:51:12 AM 34.0817 -96.4131 23° Northeast 443 510 33,000 1,250 Climbing Fort Worth Center
Wed 07:52:12 AM 34.1792 -96.3339 34° Northeast 424 488 33,900 1,000 Climbing Fort Worth Center
Wed 07:53:12 AM 34.2828 -96.2497 34° Northeast 430 495 35,000 550 Climbing Fort Worth Center
Wed 07:54:12 AM 34.3842 -96.1653 34° Northeast 440 506 35,000  Level Fort Worth Center
Wed 07:55:12 AM 34.4856 -96.0833 34° Northeast 440 506 35,000  Level Fort Worth Center
Wed 07:56:12 AM 34.5847 -96.0011 34° Northeast 440 506 35,000  Level Fort Worth Center
Wed 07:57:12 AM 34.6881 -95.9158 34° Northeast 440 506 35,000  Level Fort Worth Center
Wed 07:58:12 AM 34.7914 -95.8308 34° Northeast 440 506 35,000  Level Fort Worth Center
Wed 07:59:12 AM 34.8944 -95.7428 35° Northeast 440 506 35,000  Level Fort Worth Center
Wed 08:00:44 AM 35.0500 -95.5936 38° Northeast 450 518 35,000  Level Kansas City Center
Wed 08:01:45 AM 35.1489 -95.4994 38° Northeast 450 518 35,000  Level Kansas City Center
Wed 08:02:46 AM 35.2492 -95.4047 38° Northeast 454 522 35,000  Level Kansas City Center
Wed 08:03:47 AM 35.3486 -95.3114 37° Northeast 452 520 35,000  Level Kansas City Center
Wed 08:04:48 AM 35.4481 -95.2178 37° Northeast 451 519 35,000  Level Kansas City Center
Wed 08:05:49 AM 35.5481 -95.1208 38° Northeast 454 522 35,000  Level Kansas City Center
Wed 08:06:50 AM 35.6475 -95.0244 38° Northeast 455 524 35,000  Level Kansas City Center
Wed 08:07:51 AM 35.7444 -94.9308 38° Northeast 449 517 35,000  Level Kansas City Center
Wed 08:08:53 AM 35.8628 -94.8181 38° Northeast 449 517 35,000  Level Kansas City Center
Wed 08:09:54 AM 35.9614 -94.7219 38° Northeast 452 520 35,000  Level Kansas City Center
Wed 08:10:55 AM 36.0606 -94.6253 38° Northeast 454 522 35,000  Level Kansas City Center
Wed 08:11:56 AM 36.1586 -94.5297 38° Northeast 453 521 35,000  Level Kansas City Center
Wed 08:12:57 AM 36.2561 -94.4347 38° Northeast 450 518 35,000  Level Kansas City Center
Wed 08:13:59 AM 36.3544 -94.3389 38° Northeast 449 517 35,000  Level Kansas City Center
Wed 08:15:00 AM 36.4514 -94.2439 38° Northeast 447 514 35,000  Level Kansas City Center
Wed 08:16:01 AM 36.5461 -94.1497 39° Northeast 441 507 35,000  Level Kansas City Center
Wed 08:17:02 AM 36.6428 -94.0531 39° Northeast 444 511 35,000  Level Kansas City Center
Wed 08:18:04 AM 36.7586 -93.9403 38° Northeast 442 509 35,000 -293 Level Kansas City Center
Wed 08:19:05 AM 36.8539 -93.8439 39° Northeast 440 506 34,400 -689 Descending Kansas City Center
Wed 08:20:06 AM 36.9494 -93.7447 40° Northeast 437 503 33,600 -689 Descending Kansas City Center
Wed 08:21:07 AM 37.0450 -93.6497 38° Northeast 437 503 33,000 -585 Descending Kansas City Center
Wed 08:22:09 AM 37.1378 -93.5553 39° Northeast 432 497 32,400 -683 Descending Kansas City Center
Wed 08:23:10 AM 37.2308 -93.4611 39° Northeast 429 494 31,600 -689 Descending Kansas City Center
Wed 08:24:11 AM 37.3261 -93.3694 37° Northeast 430 495 31,000 -295 Descending Kansas City Center
Wed 08:25:12 AM 37.4142 -93.2694 42° Northeast 426 490 31,000  Level Kansas City Center
Wed 08:26:14 AM 37.4997 -93.1672 43° Northeast 424 488 31,000  Level Kansas City Center
Wed 08:27:15 AM 37.5881 -93.0675 42° Northeast 425 489 31,000  Level Kansas City Center
Wed 08:28:16 AM 37.6739 -92.9639 44° Northeast 426 490 31,000  Level Kansas City Center
Wed 08:29:18 AM 37.7450 -92.8408 54° Northeast 428 493 31,000  Level Kansas City Center
Wed 08:30:19 AM 37.8175 -92.7189 53° Northeast 427 491 31,000  Level Kansas City Center
Wed 08:31:20 AM 37.8892 -92.5975 53° Northeast 430 495 31,000  Level Kansas City Center
Wed 08:32:22 AM 37.9761 -92.4539 52° Northeast 430 495 31,000  Level Kansas City Center
Wed 08:33:23 AM 38.0444 -92.3331 54° Northeast 426 490 31,000  Level Kansas City Center
Wed 08:34:25 AM 38.1161 -92.2125 53° Northeast 426 490 31,000 -683 Level Kansas City Center
Wed 08:35:26 AM 38.1850 -92.0911 54° Northeast 425 489 29,600 -2,164 Descending Kansas City Center
Wed 08:36:27 AM 38.2631 -91.9572 53° Northeast 428 493 26,600 -2,780 Descending Kansas City Center
Wed 08:37:29 AM 38.3336 -91.8361 53° Northeast 427 491 23,900 -2,634 Descending Kansas City Center
Wed 08:38:30 AM 38.4033 -91.7178 53° Northeast 419 482 21,200 -2,780 Descending Kansas City Center
Wed 08:39:32 AM 38.4694 -91.5997 54° Northeast 412 474 18,200 -2,732 Descending Kansas City Center
Wed 08:40:33 AM 38.5325 -91.4811 56° Northeast 405 466 15,600 -2,634 Descending Kansas City Center
Wed 08:41:35 AM 38.6031 -91.3597 53° Northeast 394 453 12,800 -2,129 Descending Kansas City Center
Wed 08:42:37 AM 38.6669 -91.2569 51° Northeast 373 429 11,200 -878 Descending Kansas City Center
Wed 08:43:38 AM 38.6944 -91.1406 73° East 350 403 11,000 -390 Descending Kansas City Center
Wed 08:44:40 AM 38.7014 -91.0225 86° East 338 389 10,400 -634 Descending Kansas City Center
Wed 08:45:41 AM 38.7458 -90.9264 59° Northeast 316 364 9,700 -976 Descending Kansas City Center
Wed 08:46:43 AM 38.7847 -90.8344 61° Northeast 297 342 8,400 -1,355 Descending Kansas City Center
Wed 08:47:45 AM 38.8225 -90.7469 61° Northeast 285 328 6,900 -1,415 Descending Kansas City Center
Wed 08:48:46 AM 38.8592 -90.6594 62° Northeast 279 321 5,500 -1,377 Descending Kansas City Center

Login

Don't have an account? Register now (free) for customized features, flight alerts, and more!